KACY/ACY METAR and TAF weather

Enter ICAO airport designator
Station Type Date Time Source
KACY METAR 2022/05/24 10:54 UTC NOAA

KACY 241054Z 09004KT 10SM -RA OVC110 14/13 A3022 RMK AO2 RAB17 SLP234 P0001 T01440133


Station Type Date Time Source
KACY Decoded METAR 2022/05/24 10:54 UTC NOAA

ATLANTIC CITY INTERNATIONAL, NJ, United States (KACY) 39-28N 74-35W 35M
May 24, 2022 - 06:54 AM EDT / 2022.05.24 1054 UTC
Wind: from the E (090 degrees) at 5 MPH (4 KT):0
Visibility: 10 mile(s):0
Sky conditions: overcast
Weather: light rain
Precipitation last hour: 0.01 inches
Temperature: 57.9 F (14.4 C)
Dew Point: 55.9 F (13.3 C)
Relative Humidity: 93%
Pressure (altimeter): 30.22 in. Hg (1023 hPa)
ob: KACY 241054Z 09004KT 10SM -RA OVC110 14/13 A3022 RMK AO2 RAB17 SLP234 P0001 T01440133
cycle: 11

Station Type Date Time Source
KACY TAF 2022/05/24 06:39 UTC NOAA

TAF KACY 240528Z 2406/2506 VRB04KT P6SM VCSH OVC100
FM241200 07007KT 6SM BR VCSH OVC070
FM241400 09012KT P6SM OVC060
FM250000 07007KT P6SM OVC090

Example: see airport list